sensor_id;sensor_type;location;lat;lon;timestamp;temperature;humidity
11152;DHT22;5630;49.342;10.802;2023-12-29T00:00:03;8.50;99.90
11152;DHT22;5630;49.342;10.802;2023-12-29T00:02:28;8.50;99.90
11152;DHT22;5630;49.342;10.802;2023-12-29T00:04:54;8.50;99.90
11152;DHT22;5630;49.342;10.802;2023-12-29T00:07:19;8.40;99.90
11152;DHT22;5630;49.342;10.802;2023-12-29T00:09:45;8.40;99.90
11152;DHT22;5630;49.342;10.802;2023-12-29T00:12:11;8.40;99.90
11152;DHT22;5630;49.342;10.802;2023-12-29T00:14:38;8.40;99.90
11152;DHT22;5630;49.342;10.802;2023-12-29T00:17:04;8.40;99.90
11152;DHT22;5630;49.342;10.802;2023-12-29T00:19:29;8.40;99.90
11152;DHT22;5630;49.342;10.802;2023-12-29T00:21:55;8.30;99.90
11152;DHT22;5630;49.342;10.802;2023-12-29T00:24:20;8.30;99.90
11152;DHT22;5630;49.342;10.802;2023-12-29T00:26:46;8.30;99.90
11152;DHT22;5630;49.342;10.802;2023-12-29T00:29:14;8.20;99.90
11152;DHT22;5630;49.342;10.802;2023-12-29T00:31:40;8.20;99.90
11152;DHT22;5630;49.342;10.802;2023-12-29T00:34:06;8.20;99.90
11152;DHT22;5630;49.342;10.802;2023-12-29T00:36:31;8.20;99.90
11152;DHT22;5630;49.342;10.802;2023-12-29T00:38:57;8.20;99.90
11152;DHT22;5630;49.342;10.802;2023-12-29T00:41:23;8.20;99.90
11152;DHT22;5630;49.342;10.802;2023-12-29T00:43:48;8.30;99.90
11152;DHT22;5630;49.342;10.802;2023-12-29T00:46:15;8.20;99.90
11152;DHT22;5630;49.342;10.802;2023-12-29T00:48:43;8.20;99.90
11152;DHT22;5630;49.342;10.802;2023-12-29T00:51:08;8.30;99.90
11152;DHT22;5630;49.342;10.802;2023-12-29T00:53:37;8.30;99.90
11152;DHT22;5630;49.342;10.802;2023-12-29T00:56:09;8.30;99.90
11152;DHT22;5630;49.342;10.802;2023-12-29T00:58:34;8.30;99.90
11152;DHT22;5630;49.342;10.802;2023-12-29T01:01:00;8.40;99.90
11152;DHT22;5630;49.342;10.802;2023-12-29T01:03:25;8.40;99.90
11152;DHT22;5630;49.342;10.802;2023-12-29T01:05:51;8.40;99.90
11152;DHT22;5630;49.342;10.802;2023-12-29T01:08:17;8.40;99.90
11152;DHT22;5630;49.342;10.802;2023-12-29T01:10:42;8.50;99.90
11152;DHT22;5630;49.342;10.802;2023-12-29T01:13:08;8.40;99.90
11152;DHT22;5630;49.342;10.802;2023-12-29T01:15:33;8.40;99.90
11152;DHT22;5630;49.342;10.802;2023-12-29T01:17:59;8.50;99.90
11152;DHT22;5630;49.342;10.802;2023-12-29T01:20:24;8.50;99.90
11152;DHT22;5630;49.342;10.802;2023-12-29T01:22:50;8.50;99.90
11152;DHT22;5630;49.342;10.802;2023-12-29T01:25:15;8.50;99.90
11152;DHT22;5630;49.342;10.802;2023-12-29T01:27:41;8.50;99.90
11152;DHT22;5630;49.342;10.802;2023-12-29T01:30:07;8.50;99.90
11152;DHT22;5630;49.342;10.802;2023-12-29T01:32:33;8.50;99.90
11152;DHT22;5630;49.342;10.802;2023-12-29T01:34:59;8.50;99.90
11152;DHT22;5630;49.342;10.802;2023-12-29T01:37:24;8.40;99.90
11152;DHT22;5630;49.342;10.802;2023-12-29T01:39:50;8.40;99.90
11152;DHT22;5630;49.342;10.802;2023-12-29T01:42:15;8.40;99.90
11152;DHT22;5630;49.342;10.802;2023-12-29T01:44:41;8.40;99.90
11152;DHT22;5630;49.342;10.802;2023-12-29T01:47:16;8.40;99.90
11152;DHT22;5630;49.342;10.802;2023-12-29T01:49:44;8.40;99.90
11152;DHT22;5630;49.342;10.802;2023-12-29T01:52:10;8.30;99.90
11152;DHT22;5630;49.342;10.802;2023-12-29T01:54:37;8.20;99.90
11152;DHT22;5630;49.342;10.802;2023-12-29T01:57:08;8.30;99.90
11152;DHT22;5630;49.342;10.802;2023-12-29T01:59:35;8.20;99.90
11152;DHT22;5630;49.342;10.802;2023-12-29T02:02:01;8.20;99.90
11152;DHT22;5630;49.342;10.802;2023-12-29T02:04:27;8.30;99.90
11152;DHT22;5630;49.342;10.802;2023-12-29T02:06:54;8.30;99.90
11152;DHT22;5630;49.342;10.802;2023-12-29T02:09:20;8.30;99.90
11152;DHT22;5630;49.342;10.802;2023-12-29T02:11:46;8.30;99.90
11152;DHT22;5630;49.342;10.802;2023-12-29T02:14:13;8.20;99.90
11152;DHT22;5630;49.342;10.802;2023-12-29T02:16:53;8.30;99.90
11152;DHT22;5630;49.342;10.802;2023-12-29T02:19:37;8.20;99.90
11152;DHT22;5630;49.342;10.802;2023-12-29T02:22:04;8.20;99.90
11152;DHT22;5630;49.342;10.802;2023-12-29T02:24:29;8.20;99.90
11152;DHT22;5630;49.342;10.802;2023-12-29T02:27:07;8.20;99.90
11152;DHT22;5630;49.342;10.802;2023-12-29T02:29:38;8.20;99.90
11152;DHT22;5630;49.342;10.802;2023-12-29T02:32:07;8.20;99.90
11152;DHT22;5630;49.342;10.802;2023-12-29T02:34:36;8.20;99.90
11152;DHT22;5630;49.342;10.802;2023-12-29T02:37:04;8.20;99.90
11152;DHT22;5630;49.342;10.802;2023-12-29T02:39:29;8.20;99.90
11152;DHT22;5630;49.342;10.802;2023-12-29T02:41:55;8.20;99.90
11152;DHT22;5630;49.342;10.802;2023-12-29T02:44:20;8.20;99.90
11152;DHT22;5630;49.342;10.802;2023-12-29T02:46:46;8.20;99.90
11152;DHT22;5630;49.342;10.802;2023-12-29T02:49:12;8.20;99.90
11152;DHT22;5630;49.342;10.802;2023-12-29T02:51:38;8.20;99.90
11152;DHT22;5630;49.342;10.802;2023-12-29T02:54:05;8.20;99.90
11152;DHT22;5630;49.342;10.802;2023-12-29T02:56:31;8.20;99.90
11152;DHT22;5630;49.342;10.802;2023-12-29T02:58:56;8.20;99.90
11152;DHT22;5630;49.342;10.802;2023-12-29T03:01:22;8.20;99.90
11152;DHT22;5630;49.342;10.802;2023-12-29T03:03:48;8.20;99.90
11152;DHT22;5630;49.342;10.802;2023-12-29T03:06:13;8.20;99.90
11152;DHT22;5630;49.342;10.802;2023-12-29T03:08:39;8.30;99.90
11152;DHT22;5630;49.342;10.802;2023-12-29T03:11:04;8.30;99.90
11152;DHT22;5630;49.342;10.802;2023-12-29T03:13:30;8.40;99.90
11152;DHT22;5630;49.342;10.802;2023-12-29T03:15:55;8.40;99.90
11152;DHT22;5630;49.342;10.802;2023-12-29T03:18:21;8.40;99.90
11152;DHT22;5630;49.342;10.802;2023-12-29T03:20:46;8.40;99.90
11152;DHT22;5630;49.342;10.802;2023-12-29T03:23:12;8.50;99.90
11152;DHT22;5630;49.342;10.802;2023-12-29T03:25:37;8.50;99.90
11152;DHT22;5630;49.342;10.802;2023-12-29T03:28:03;8.50;99.90
11152;DHT22;5630;49.342;10.802;2023-12-29T03:30:29;8.50;99.90
11152;DHT22;5630;49.342;10.802;2023-12-29T03:32:54;8.50;99.90
11152;DHT22;5630;49.342;10.802;2023-12-29T03:35:20;8.60;99.90
11152;DHT22;5630;49.342;10.802;2023-12-29T03:37:45;8.50;99.90
11152;DHT22;5630;49.342;10.802;2023-12-29T03:40:11;8.50;99.90
11152;DHT22;5630;49.342;10.802;2023-12-29T03:42:38;8.60;99.90
11152;DHT22;5630;49.342;10.802;2023-12-29T03:45:04;8.60;99.90
11152;DHT22;5630;49.342;10.802;2023-12-29T03:47:30;8.60;99.90
11152;DHT22;5630;49.342;10.802;2023-12-29T03:49:57;8.60;99.90
11152;DHT22;5630;49.342;10.802;2023-12-29T03:52:22;8.70;99.90
11152;DHT22;5630;49.342;10.802;2023-12-29T03:54:48;8.60;99.90
11152;DHT22;5630;49.342;10.802;2023-12-29T03:57:13;8.60;99.90
11152;DHT22;5630;49.342;10.802;2023-12-29T03:59:39;8.60;99.90
11152;DHT22;5630;49.342;10.802;2023-12-29T04:02:04;8.60;99.90
11152;DHT22;5630;49.342;10.802;2023-12-29T04:04:30;8.60;99.90
11152;DHT22;5630;49.342;10.802;2023-12-29T04:06:56;8.70;99.90
11152;DHT22;5630;49.342;10.802;2023-12-29T04:09:21;8.60;99.90
11152;DHT22;5630;49.342;10.802;2023-12-29T04:11:47;8.60;99.90
11152;DHT22;5630;49.342;10.802;2023-12-29T04:14:12;8.60;99.90
11152;DHT22;5630;49.342;10.802;2023-12-29T04:16:39;8.60;99.90
11152;DHT22;5630;49.342;10.802;2023-12-29T04:19:04;8.60;99.90
11152;DHT22;5630;49.342;10.802;2023-12-29T04:21:30;8.60;99.90
11152;DHT22;5630;49.342;10.802;2023-12-29T04:23:55;8.50;99.90
11152;DHT22;5630;49.342;10.802;2023-12-29T04:26:21;8.50;99.90
11152;DHT22;5630;49.342;10.802;2023-12-29T04:28:47;8.50;99.90
11152;DHT22;5630;49.342;10.802;2023-12-29T04:31:12;8.50;99.90
11152;DHT22;5630;49.342;10.802;2023-12-29T04:33:38;8.40;99.90
11152;DHT22;5630;49.342;10.802;2023-12-29T04:36:03;8.40;99.90
11152;DHT22;5630;49.342;10.802;2023-12-29T04:38:29;8.40;99.90
11152;DHT22;5630;49.342;10.802;2023-12-29T04:40:55;8.40;99.90
11152;DHT22;5630;49.342;10.802;2023-12-29T04:43:20;8.40;99.90
11152;DHT22;5630;49.342;10.802;2023-12-29T04:45:46;8.40;99.90
11152;DHT22;5630;49.342;10.802;2023-12-29T04:48:11;8.30;99.90
11152;DHT22;5630;49.342;10.802;2023-12-29T04:50:37;8.30;99.90
11152;DHT22;5630;49.342;10.802;2023-12-29T04:53:03;8.30;99.90
11152;DHT22;5630;49.342;10.802;2023-12-29T04:55:28;8.20;99.90
11152;DHT22;5630;49.342;10.802;2023-12-29T04:57:54;8.20;99.90
11152;DHT22;5630;49.342;10.802;2023-12-29T05:00:20;8.20;99.90
11152;DHT22;5630;49.342;10.802;2023-12-29T05:02:45;8.20;99.90
11152;DHT22;5630;49.342;10.802;2023-12-29T05:05:11;8.20;99.90
11152;DHT22;5630;49.342;10.802;2023-12-29T05:07:36;8.20;99.90
11152;DHT22;5630;49.342;10.802;2023-12-29T05:10:02;8.20;99.90
11152;DHT22;5630;49.342;10.802;2023-12-29T05:12:28;8.20;99.90
11152;DHT22;5630;49.342;10.802;2023-12-29T05:14:55;8.20;99.90
11152;DHT22;5630;49.342;10.802;2023-12-29T05:17:21;8.20;99.90
11152;DHT22;5630;49.342;10.802;2023-12-29T05:19:46;8.30;99.90
11152;DHT22;5630;49.342;10.802;2023-12-29T05:22:12;8.30;99.90
11152;DHT22;5630;49.342;10.802;2023-12-29T05:24:41;8.30;99.90
11152;DHT22;5630;49.342;10.802;2023-12-29T05:27:07;8.40;99.90
11152;DHT22;5630;49.342;10.802;2023-12-29T05:29:32;8.40;99.90
11152;DHT22;5630;49.342;10.802;2023-12-29T05:31:58;8.40;99.90
11152;DHT22;5630;49.342;10.802;2023-12-29T05:34:24;8.40;99.90
11152;DHT22;5630;49.342;10.802;2023-12-29T05:36:49;8.50;99.90
11152;DHT22;5630;49.342;10.802;2023-12-29T05:39:15;8.50;99.90
11152;DHT22;5630;49.342;10.802;2023-12-29T05:41:41;8.50;99.90
11152;DHT22;5630;49.342;10.802;2023-12-29T05:44:06;8.40;99.90
11152;DHT22;5630;49.342;10.802;2023-12-29T05:46:32;8.50;99.90
11152;DHT22;5630;49.342;10.802;2023-12-29T05:48:57;8.50;99.90
11152;DHT22;5630;49.342;10.802;2023-12-29T05:51:23;8.50;99.90
11152;DHT22;5630;49.342;10.802;2023-12-29T05:53:49;8.40;99.90
11152;DHT22;5630;49.342;10.802;2023-12-29T05:56:15;8.40;99.90
11152;DHT22;5630;49.342;10.802;2023-12-29T05:58:41;8.50;99.90
11152;DHT22;5630;49.342;10.802;2023-12-29T06:01:10;8.50;99.90
11152;DHT22;5630;49.342;10.802;2023-12-29T06:03:36;8.50;99.90
11152;DHT22;5630;49.342;10.802;2023-12-29T06:06:02;8.50;99.90
11152;DHT22;5630;49.342;10.802;2023-12-29T06:08:28;8.50;99.90
11152;DHT22;5630;49.342;10.802;2023-12-29T06:10:53;8.50;99.90
11152;DHT22;5630;49.342;10.802;2023-12-29T06:13:19;8.50;99.90
11152;DHT22;5630;49.342;10.802;2023-12-29T06:15:44;8.50;99.90
11152;DHT22;5630;49.342;10.802;2023-12-29T06:18:10;8.40;99.90
11152;DHT22;5630;49.342;10.802;2023-12-29T06:20:36;8.50;99.90
11152;DHT22;5630;49.342;10.802;2023-12-29T06:23:01;8.50;99.90
11152;DHT22;5630;49.342;10.802;2023-12-29T06:25:27;8.50;99.90
11152;DHT22;5630;49.342;10.802;2023-12-29T06:27:53;8.60;99.90
11152;DHT22;5630;49.342;10.802;2023-12-29T06:30:20;8.60;99.90
11152;DHT22;5630;49.342;10.802;2023-12-29T06:32:46;8.60;99.90
11152;DHT22;5630;49.342;10.802;2023-12-29T06:35:11;8.60;99.90
11152;DHT22;5630;49.342;10.802;2023-12-29T06:37:38;8.60;99.90
11152;DHT22;5630;49.342;10.802;2023-12-29T06:40:07;8.60;99.90
11152;DHT22;5630;49.342;10.802;2023-12-29T06:42:32;8.60;99.90
11152;DHT22;5630;49.342;10.802;2023-12-29T06:44:58;8.70;99.90
11152;DHT22;5630;49.342;10.802;2023-12-29T06:47:24;8.70;99.90
11152;DHT22;5630;49.342;10.802;2023-12-29T06:49:49;8.70;99.90
11152;DHT22;5630;49.342;10.802;2023-12-29T06:52:16;8.70;99.90
11152;DHT22;5630;49.342;10.802;2023-12-29T06:54:42;8.70;99.90
11152;DHT22;5630;49.342;10.802;2023-12-29T06:57:07;8.70;99.90
11152;DHT22;5630;49.342;10.802;2023-12-29T06:59:33;8.60;99.90
11152;DHT22;5630;49.342;10.802;2023-12-29T07:01:59;8.60;99.90
11152;DHT22;5630;49.342;10.802;2023-12-29T07:04:25;8.70;99.90
11152;DHT22;5630;49.342;10.802;2023-12-29T07:06:50;8.60;99.90
11152;DHT22;5630;49.342;10.802;2023-12-29T07:09:16;8.70;99.90
11152;DHT22;5630;49.342;10.802;2023-12-29T07:11:42;8.70;99.90
11152;DHT22;5630;49.342;10.802;2023-12-29T07:14:12;9.00;99.90
11152;DHT22;5630;49.342;10.802;2023-12-29T07:19:03;9.20;99.90
11152;DHT22;5630;49.342;10.802;2023-12-29T07:21:29;9.20;99.90
11152;DHT22;5630;49.342;10.802;2023-12-29T07:23:55;9.10;99.90
11152;DHT22;5630;49.342;10.802;2023-12-29T07:26:27;9.00;99.90
11152;DHT22;5630;49.342;10.802;2023-12-29T07:28:52;9.00;99.90
11152;DHT22;5630;49.342;10.802;2023-12-29T07:31:20;8.90;99.90
11152;DHT22;5630;49.342;10.802;2023-12-29T07:33:46;8.90;99.90
11152;DHT22;5630;49.342;10.802;2023-12-29T07:36:12;9.00;99.90
11152;DHT22;5630;49.342;10.802;2023-12-29T07:38:38;8.90;99.90
11152;DHT22;5630;49.342;10.802;2023-12-29T07:41:03;8.90;99.90
11152;DHT22;5630;49.342;10.802;2023-12-29T07:43:29;9.30;99.90
11152;DHT22;5630;49.342;10.802;2023-12-29T07:45:55;9.40;99.90
11152;DHT22;5630;49.342;10.802;2023-12-29T07:48:20;9.30;99.90
11152;DHT22;5630;49.342;10.802;2023-12-29T07:50:46;9.30;99.90
11152;DHT22;5630;49.342;10.802;2023-12-29T07:53:12;9.10;99.90
11152;DHT22;5630;49.342;10.802;2023-12-29T07:55:38;9.10;99.90
11152;DHT22;5630;49.342;10.802;2023-12-29T07:58:06;9.10;99.90
11152;DHT22;5630;49.342;10.802;2023-12-29T08:00:32;9.10;99.90
11152;DHT22;5630;49.342;10.802;2023-12-29T08:02:58;9.10;99.90
11152;DHT22;5630;49.342;10.802;2023-12-29T08:05:24;9.00;99.90
11152;DHT22;5630;49.342;10.802;2023-12-29T08:07:50;9.10;99.90
11152;DHT22;5630;49.342;10.802;2023-12-29T08:10:16;9.00;99.90
11152;DHT22;5630;49.342;10.802;2023-12-29T08:12:42;9.10;99.90
11152;DHT22;5630;49.342;10.802;2023-12-29T08:15:08;9.10;99.90
11152;DHT22;5630;49.342;10.802;2023-12-29T08:17:33;9.00;99.90
11152;DHT22;5630;49.342;10.802;2023-12-29T08:19:59;9.10;99.90
11152;DHT22;5630;49.342;10.802;2023-12-29T08:22:24;9.10;99.90
11152;DHT22;5630;49.342;10.802;2023-12-29T08:24:50;9.10;99.90
11152;DHT22;5630;49.342;10.802;2023-12-29T08:27:23;9.10;99.90
11152;DHT22;5630;49.342;10.802;2023-12-29T08:29:49;9.20;99.90
11152;DHT22;5630;49.342;10.802;2023-12-29T08:32:15;9.20;99.90
11152;DHT22;5630;49.342;10.802;2023-12-29T08:34:40;9.20;99.90
11152;DHT22;5630;49.342;10.802;2023-12-29T08:37:06;9.20;99.90
11152;DHT22;5630;49.342;10.802;2023-12-29T08:39:31;9.30;99.90
11152;DHT22;5630;49.342;10.802;2023-12-29T08:41:57;9.30;99.90
11152;DHT22;5630;49.342;10.802;2023-12-29T08:44:23;9.30;99.90
11152;DHT22;5630;49.342;10.802;2023-12-29T08:46:48;9.20;99.90
11152;DHT22;5630;49.342;10.802;2023-12-29T08:49:14;9.30;99.90
11152;DHT22;5630;49.342;10.802;2023-12-29T08:51:40;9.30;99.90
11152;DHT22;5630;49.342;10.802;2023-12-29T08:54:05;9.30;99.90
11152;DHT22;5630;49.342;10.802;2023-12-29T08:56:32;9.30;99.90
11152;DHT22;5630;49.342;10.802;2023-12-29T08:58:57;9.30;99.90
11152;DHT22;5630;49.342;10.802;2023-12-29T09:01:23;9.30;99.90
11152;DHT22;5630;49.342;10.802;2023-12-29T09:03:48;9.30;99.90
11152;DHT22;5630;49.342;10.802;2023-12-29T09:06:14;9.30;99.90
11152;DHT22;5630;49.342;10.802;2023-12-29T09:08:41;9.40;99.90
11152;DHT22;5630;49.342;10.802;2023-12-29T09:11:06;9.40;99.90
11152;DHT22;5630;49.342;10.802;2023-12-29T09:13:32;9.40;99.90
11152;DHT22;5630;49.342;10.802;2023-12-29T09:15:58;9.40;99.90
11152;DHT22;5630;49.342;10.802;2023-12-29T09:18:24;9.50;99.90
11152;DHT22;5630;49.342;10.802;2023-12-29T09:20:50;9.50;99.90
11152;DHT22;5630;49.342;10.802;2023-12-29T09:23:15;9.60;99.90
11152;DHT22;5630;49.342;10.802;2023-12-29T09:25:41;9.50;99.90
11152;DHT22;5630;49.342;10.802;2023-12-29T09:28:07;9.60;99.90
11152;DHT22;5630;49.342;10.802;2023-12-29T09:30:32;9.50;99.90
11152;DHT22;5630;49.342;10.802;2023-12-29T09:32:58;9.50;99.90
11152;DHT22;5630;49.342;10.802;2023-12-29T09:35:24;9.50;99.90
11152;DHT22;5630;49.342;10.802;2023-12-29T09:37:50;9.50;99.90
11152;DHT22;5630;49.342;10.802;2023-12-29T09:40:15;9.50;99.90
11152;DHT22;5630;49.342;10.802;2023-12-29T09:42:43;9.50;99.90
11152;DHT22;5630;49.342;10.802;2023-12-29T09:45:11;9.40;99.90
11152;DHT22;5630;49.342;10.802;2023-12-29T09:47:42;9.40;99.90
11152;DHT22;5630;49.342;10.802;2023-12-29T09:50:12;9.50;99.90
11152;DHT22;5630;49.342;10.802;2023-12-29T09:52:39;9.40;99.90
11152;DHT22;5630;49.342;10.802;2023-12-29T09:55:08;9.40;99.90
11152;DHT22;5630;49.342;10.802;2023-12-29T09:57:35;9.40;99.90
11152;DHT22;5630;49.342;10.802;2023-12-29T10:00:02;9.40;99.90
11152;DHT22;5630;49.342;10.802;2023-12-29T10:02:29;9.40;99.90
11152;DHT22;5630;49.342;10.802;2023-12-29T10:04:56;9.40;99.90
11152;DHT22;5630;49.342;10.802;2023-12-29T10:07:26;9.30;99.90
11152;DHT22;5630;49.342;10.802;2023-12-29T10:09:56;9.40;99.90
11152;DHT22;5630;49.342;10.802;2023-12-29T10:12:35;9.40;99.90
11152;DHT22;5630;49.342;10.802;2023-12-29T10:15:17;9.30;99.90
11152;DHT22;5630;49.342;10.802;2023-12-29T10:18:14;9.20;99.90
11152;DHT22;5630;49.342;10.802;2023-12-29T10:21:01;9.30;99.90
11152;DHT22;5630;49.342;10.802;2023-12-29T10:23:42;9.30;99.90
11152;DHT22;5630;49.342;10.802;2023-12-29T10:26:12;9.40;99.90
11152;DHT22;5630;49.342;10.802;2023-12-29T10:28:37;9.50;99.90
11152;DHT22;5630;49.342;10.802;2023-12-29T10:31:04;9.50;99.90
11152;DHT22;5630;49.342;10.802;2023-12-29T10:33:30;9.60;99.90
11152;DHT22;5630;49.342;10.802;2023-12-29T10:35:58;9.60;99.90
11152;DHT22;5630;49.342;10.802;2023-12-29T10:38:34;9.60;99.90
11152;DHT22;5630;49.342;10.802;2023-12-29T10:41:17;9.70;99.90
11152;DHT22;5630;49.342;10.802;2023-12-29T10:43:46;9.70;99.90
11152;DHT22;5630;49.342;10.802;2023-12-29T10:46:20;9.80;99.90
11152;DHT22;5630;49.342;10.802;2023-12-29T10:48:46;9.80;99.90
11152;DHT22;5630;49.342;10.802;2023-12-29T10:51:11;9.80;99.90
11152;DHT22;5630;49.342;10.802;2023-12-29T10:53:37;9.80;99.90
11152;DHT22;5630;49.342;10.802;2023-12-29T10:56:03;9.90;99.90
11152;DHT22;5630;49.342;10.802;2023-12-29T10:58:30;9.90;99.90
11152;DHT22;5630;49.342;10.802;2023-12-29T11:00:57;9.90;99.90
11152;DHT22;5630;49.342;10.802;2023-12-29T11:03:22;10.00;99.90
11152;DHT22;5630;49.342;10.802;2023-12-29T11:05:49;10.00;99.90
11152;DHT22;5630;49.342;10.802;2023-12-29T11:08:18;9.90;99.90
11152;DHT22;5630;49.342;10.802;2023-12-29T11:10:44;10.00;99.90
11152;DHT22;5630;49.342;10.802;2023-12-29T11:13:14;10.00;99.90
11152;DHT22;5630;49.342;10.802;2023-12-29T11:15:44;10.10;99.90
11152;DHT22;5630;49.342;10.802;2023-12-29T11:18:15;10.20;99.90
11152;DHT22;5630;49.342;10.802;2023-12-29T11:20:42;10.30;99.90
11152;DHT22;5630;49.342;10.802;2023-12-29T11:23:10;10.40;99.90
11152;DHT22;5630;49.342;10.802;2023-12-29T11:25:36;10.50;99.90
11152;DHT22;5630;49.342;10.802;2023-12-29T11:28:03;10.50;99.90
11152;DHT22;5630;49.342;10.802;2023-12-29T11:30:29;10.50;99.90
11152;DHT22;5630;49.342;10.802;2023-12-29T11:33:02;10.50;99.90
11152;DHT22;5630;49.342;10.802;2023-12-29T11:41:21;10.40;99.90
11152;DHT22;5630;49.342;10.802;2023-12-29T11:44:00;10.40;99.90
11152;DHT22;5630;49.342;10.802;2023-12-29T11:46:39;10.40;99.90
11152;DHT22;5630;49.342;10.802;2023-12-29T11:49:06;10.40;99.90
11152;DHT22;5630;49.342;10.802;2023-12-29T11:51:44;10.40;99.90
11152;DHT22;5630;49.342;10.802;2023-12-29T11:54:10;10.30;99.90
11152;DHT22;5630;49.342;10.802;2023-12-29T11:56:46;10.30;99.90
11152;DHT22;5630;49.342;10.802;2023-12-29T11:59:20;10.30;99.90
11152;DHT22;5630;49.342;10.802;2023-12-29T12:01:47;10.30;99.90
11152;DHT22;5630;49.342;10.802;2023-12-29T12:04:39;10.20;99.90
11152;DHT22;5630;49.342;10.802;2023-12-29T12:12:48;10.20;99.90
11152;DHT22;5630;49.342;10.802;2023-12-29T12:17:56;10.40;99.90
11152;DHT22;5630;49.342;10.802;2023-12-29T12:20:21;10.50;99.90
11152;DHT22;5630;49.342;10.802;2023-12-29T12:23:04;10.50;99.90
11152;DHT22;5630;49.342;10.802;2023-12-29T12:25:31;10.60;99.90
11152;DHT22;5630;49.342;10.802;2023-12-29T12:28:06;10.60;99.90
11152;DHT22;5630;49.342;10.802;2023-12-29T12:30:35;10.70;99.90
11152;DHT22;5630;49.342;10.802;2023-12-29T12:33:03;10.80;99.90
11152;DHT22;5630;49.342;10.802;2023-12-29T12:35:29;10.90;99.90
11152;DHT22;5630;49.342;10.802;2023-12-29T12:40:36;10.80;99.90
11152;DHT22;5630;49.342;10.802;2023-12-29T12:43:03;10.80;99.90
11152;DHT22;5630;49.342;10.802;2023-12-29T12:45:34;10.80;99.90
11152;DHT22;5630;49.342;10.802;2023-12-29T12:48:02;10.80;99.90
11152;DHT22;5630;49.342;10.802;2023-12-29T12:50:29;10.80;99.90
11152;DHT22;5630;49.342;10.802;2023-12-29T12:52:56;10.80;99.90
11152;DHT22;5630;49.342;10.802;2023-12-29T12:55:23;10.80;99.90
11152;DHT22;5630;49.342;10.802;2023-12-29T12:57:49;10.80;99.90
11152;DHT22;5630;49.342;10.802;2023-12-29T13:00:15;10.90;99.90
11152;DHT22;5630;49.342;10.802;2023-12-29T13:02:44;10.80;99.90
11152;DHT22;5630;49.342;10.802;2023-12-29T13:05:11;10.70;99.90
11152;DHT22;5630;49.342;10.802;2023-12-29T13:07:36;10.60;99.90
11152;DHT22;5630;49.342;10.802;2023-12-29T13:10:03;10.70;99.90
11152;DHT22;5630;49.342;10.802;2023-12-29T13:12:29;10.60;99.90
11152;DHT22;5630;49.342;10.802;2023-12-29T13:15:05;10.60;99.90
11152;DHT22;5630;49.342;10.802;2023-12-29T13:17:31;10.60;99.90
11152;DHT22;5630;49.342;10.802;2023-12-29T13:19:57;10.60;99.90
11152;DHT22;5630;49.342;10.802;2023-12-29T13:22:24;10.60;99.90
11152;DHT22;5630;49.342;10.802;2023-12-29T13:24:50;10.70;99.90
11152;DHT22;5630;49.342;10.802;2023-12-29T13:27:15;10.50;99.90
11152;DHT22;5630;49.342;10.802;2023-12-29T13:29:41;10.50;99.90
11152;DHT22;5630;49.342;10.802;2023-12-29T13:32:12;10.50;99.90
11152;DHT22;5630;49.342;10.802;2023-12-29T13:35:06;10.40;99.90
11152;DHT22;5630;49.342;10.802;2023-12-29T13:37:46;10.40;99.90
11152;DHT22;5630;49.342;10.802;2023-12-29T13:40:38;10.50;99.90
11152;DHT22;5630;49.342;10.802;2023-12-29T13:43:07;10.50;99.90
11152;DHT22;5630;49.342;10.802;2023-12-29T13:45:34;10.50;99.90
11152;DHT22;5630;49.342;10.802;2023-12-29T13:48:01;10.50;99.90
11152;DHT22;5630;49.342;10.802;2023-12-29T13:50:27;10.40;99.90
11152;DHT22;5630;49.342;10.802;2023-12-29T13:52:53;10.40;99.90
11152;DHT22;5630;49.342;10.802;2023-12-29T13:55:23;10.50;99.90
11152;DHT22;5630;49.342;10.802;2023-12-29T13:57:49;10.40;99.90
11152;DHT22;5630;49.342;10.802;2023-12-29T14:00:22;10.40;99.90
11152;DHT22;5630;49.342;10.802;2023-12-29T14:05:28;10.40;99.90
11152;DHT22;5630;49.342;10.802;2023-12-29T14:13:07;10.40;99.90
11152;DHT22;5630;49.342;10.802;2023-12-29T14:15:40;10.40;99.90
11152;DHT22;5630;49.342;10.802;2023-12-29T14:20:37;10.40;99.90
11152;DHT22;5630;49.342;10.802;2023-12-29T14:23:04;10.40;99.90
11152;DHT22;5630;49.342;10.802;2023-12-29T14:25:34;10.40;99.90
11152;DHT22;5630;49.342;10.802;2023-12-29T14:28:02;10.40;99.90
11152;DHT22;5630;49.342;10.802;2023-12-29T14:30:28;10.40;99.90
11152;DHT22;5630;49.342;10.802;2023-12-29T14:32:59;10.40;99.90
11152;DHT22;5630;49.342;10.802;2023-12-29T14:35:25;10.40;99.90
11152;DHT22;5630;49.342;10.802;2023-12-29T14:37:51;10.40;99.90
11152;DHT22;5630;49.342;10.802;2023-12-29T14:40:16;10.40;99.90
11152;DHT22;5630;49.342;10.802;2023-12-29T14:42:42;10.30;99.90
11152;DHT22;5630;49.342;10.802;2023-12-29T14:45:08;10.20;99.90
11152;DHT22;5630;49.342;10.802;2023-12-29T14:47:35;10.20;99.90
11152;DHT22;5630;49.342;10.802;2023-12-29T14:50:01;10.20;99.90
11152;DHT22;5630;49.342;10.802;2023-12-29T14:52:26;10.20;99.90
11152;DHT22;5630;49.342;10.802;2023-12-29T14:54:52;10.10;99.90
11152;DHT22;5630;49.342;10.802;2023-12-29T14:57:17;10.10;99.90
11152;DHT22;5630;49.342;10.802;2023-12-29T14:59:43;10.10;99.90
11152;DHT22;5630;49.342;10.802;2023-12-29T15:02:09;10.00;99.90
11152;DHT22;5630;49.342;10.802;2023-12-29T15:04:35;10.00;99.90
11152;DHT22;5630;49.342;10.802;2023-12-29T15:07:02;10.00;99.90
11152;DHT22;5630;49.342;10.802;2023-12-29T15:09:28;9.90;99.90
11152;DHT22;5630;49.342;10.802;2023-12-29T15:11:53;9.90;99.90
11152;DHT22;5630;49.342;10.802;2023-12-29T15:14:20;9.90;99.90
11152;DHT22;5630;49.342;10.802;2023-12-29T15:16:45;9.90;99.90
11152;DHT22;5630;49.342;10.802;2023-12-29T15:19:11;9.80;99.90
11152;DHT22;5630;49.342;10.802;2023-12-29T15:21:38;9.80;99.90
11152;DHT22;5630;49.342;10.802;2023-12-29T15:24:04;9.80;99.90
11152;DHT22;5630;49.342;10.802;2023-12-29T15:26:30;9.80;99.90
11152;DHT22;5630;49.342;10.802;2023-12-29T15:28:55;9.70;99.90
11152;DHT22;5630;49.342;10.802;2023-12-29T15:31:25;9.70;99.90
11152;DHT22;5630;49.342;10.802;2023-12-29T15:33:51;9.60;99.90
11152;DHT22;5630;49.342;10.802;2023-12-29T15:36:18;9.70;99.90
11152;DHT22;5630;49.342;10.802;2023-12-29T15:38:47;9.60;99.90
11152;DHT22;5630;49.342;10.802;2023-12-29T15:41:13;9.60;99.90
11152;DHT22;5630;49.342;10.802;2023-12-29T15:43:38;9.60;99.90
11152;DHT22;5630;49.342;10.802;2023-12-29T15:46:18;9.60;99.90
11152;DHT22;5630;49.342;10.802;2023-12-29T15:48:46;9.60;99.90
11152;DHT22;5630;49.342;10.802;2023-12-29T15:51:12;9.60;99.90
11152;DHT22;5630;49.342;10.802;2023-12-29T15:53:38;9.60;99.90
11152;DHT22;5630;49.342;10.802;2023-12-29T15:56:07;9.60;99.90
11152;DHT22;5630;49.342;10.802;2023-12-29T15:58:33;9.60;99.90
11152;DHT22;5630;49.342;10.802;2023-12-29T16:00:58;9.50;99.90
11152;DHT22;5630;49.342;10.802;2023-12-29T16:03:24;9.50;99.90
11152;DHT22;5630;49.342;10.802;2023-12-29T16:05:50;9.50;99.90
11152;DHT22;5630;49.342;10.802;2023-12-29T16:08:15;9.50;99.90
11152;DHT22;5630;49.342;10.802;2023-12-29T16:10:41;9.40;99.90